Time;durP1;ratioP1;P1;durP2;ratioP2;P2;SDS_P1;SDS_P2;PMS_P1;PMS_P2;Temp;Humidity;BMP_temperature;BMP_pressure;BME280_temperature;BME280_humidity;BME280_pressure;Samples;Min_cycle;Max_cycle;Signal;HPM_P1;HPM_P2
2022/01/02 00:00:15;;;;;;;5.00;2.78;;;10.90;99.90;;;;;;7329532;32;20524;-66
2022/01/02 00:04:22;;;;;;;5.30;2.60;;;10.80;99.90;;;;;;7331468;32;20709;-65
2022/01/02 00:08:24;;;;;;;4.97;2.47;;;10.90;99.90;;;;;;7340675;32;20108;-65
2022/01/02 00:12:31;;;;;;;4.35;2.70;;;10.90;99.90;;;;;;7325115;32;20217;-65
2022/01/02 00:16:35;;;;;;;3.80;2.62;;;10.90;99.90;;;;;;7325704;32;20204;-66
2022/01/02 00:20:45;;;;;;;6.95;2.87;;;10.80;99.90;;;;;;7329933;32;20110;-65
2022/01/02 00:24:47;;;;;;;6.15;2.62;;;10.80;99.90;;;;;;7332074;32;20314;-65
2022/01/02 00:28:49;;;;;;;8.18;2.70;;;10.90;99.90;;;;;;7331870;32;20161;-65
2022/01/02 00:32:51;;;;;;;6.93;2.70;;;10.90;99.90;;;;;;7337321;32;20201;-66
2022/01/02 00:36:53;;;;;;;3.75;2.53;;;10.80;99.90;;;;;;7336604;32;20133;-67
2022/01/02 00:40:57;;;;;;;4.00;2.47;;;10.90;99.90;;;;;;7326189;32;20193;-67
2022/01/02 00:45:17;;;;;;;5.22;2.65;;;10.80;99.90;;;;;;7328683;32;20115;-66
2022/01/02 00:49:24;;;;;;;6.18;2.90;;;10.80;99.90;;;;;;7330833;32;20184;-65
2022/01/02 00:53:34;;;;;;;4.22;2.35;;;10.90;99.90;;;;;;7330900;32;20584;-67
2022/01/02 00:57:39;;;;;;;6.72;3.00;;;10.90;99.90;;;;;;7326715;32;20698;-67
2022/01/02 01:01:47;;;;;;;4.43;2.60;;;10.90;99.90;;;;;;7326706;32;20704;-67
2022/01/02 01:05:53;;;;;;;4.10;2.83;;;10.90;99.90;;;;;;7347320;32;20111;-67
2022/01/02 01:09:57;;;;;;;4.43;2.87;;;10.80;99.90;;;;;;7331122;32;20130;-66
2022/01/02 01:14:00;;;;;;;6.60;3.42;;;10.80;99.90;;;;;;7341414;32;20530;-65
2022/01/02 01:18:03;;;;;;;5.12;2.95;;;10.80;99.90;;;;;;7330492;32;20524;-66
2022/01/02 01:22:05;;;;;;;4.40;2.95;;;10.90;99.90;;;;;;7327480;32;20115;-67
2022/01/02 01:26:10;;;;;;;4.85;2.90;;;10.90;99.90;;;;;;7317524;32;20111;-66
2022/01/02 01:30:14;;;;;;;5.75;2.33;;;10.80;99.90;;;;;;7330004;32;20625;-66
2022/01/02 01:34:16;;;;;;;6.25;3.03;;;10.80;99.90;;;;;;7340362;32;20165;-66
2022/01/02 01:38:18;;;;;;;4.03;2.90;;;10.80;99.90;;;;;;7325491;32;20531;-66
2022/01/02 01:42:31;;;;;;;4.82;2.83;;;10.80;99.90;;;;;;7331488;32;20554;-66
2022/01/02 01:46:35;;;;;;;5.43;2.85;;;11.00;99.90;;;;;;7324021;32;20233;-66
2022/01/02 01:50:41;;;;;;;5.82;3.20;;;10.90;99.90;;;;;;7327218;32;20550;-67
2022/01/02 01:54:43;;;;;;;4.95;2.92;;;11.00;99.90;;;;;;7333111;32;20115;-66
2022/01/02 01:58:45;;;;;;;6.75;3.00;;;10.90;99.90;;;;;;7337102;32;20726;-64
2022/01/02 02:02:46;;;;;;;4.47;2.90;;;10.90;99.90;;;;;;7330774;32;20145;-63
2022/01/02 02:06:48;;;;;;;6.53;3.12;;;10.90;99.90;;;;;;7330457;32;20139;-64
2022/01/02 02:10:55;;;;;;;5.37;3.47;;;10.80;99.90;;;;;;7328901;32;20359;-65
2022/01/02 02:14:58;;;;;;;5.03;3.00;;;10.80;99.90;;;;;;7334944;32;20213;-64
2022/01/02 02:19:01;;;;;;;5.78;2.95;;;10.80;99.90;;;;;;7321975;32;20233;-64
2022/01/02 02:23:03;;;;;;;5.22;2.87;;;10.80;99.90;;;;;;7325329;32;20486;-64
2022/01/02 02:27:05;;;;;;;3.92;2.28;;;10.80;99.90;;;;;;7326674;32;20520;-65
2022/01/02 02:31:07;;;;;;;4.72;3.03;;;10.80;99.90;;;;;;7329499;32;20116;-64
2022/01/02 02:35:09;;;;;;;7.18;2.75;;;10.80;99.90;;;;;;7331395;32;20107;-64
2022/01/02 02:39:10;;;;;;;4.68;2.80;;;10.80;99.90;;;;;;7330662;32;20441;-64
2022/01/02 02:43:56;;;;;;;4.85;2.72;;;10.80;99.90;;;;;;7331393;32;20108;-64
2022/01/02 02:52:12;;;;;;;5.45;2.60;;;10.80;99.90;;;;;;7329532;32;20111;-64
2022/01/02 02:56:58;;;;;;;6.12;3.10;;;10.80;99.90;;;;;;7330102;32;20574;-64
2022/01/02 03:00:38;;;;;;;4.70;3.10;;;10.80;99.90;;;;;;7328629;32;20138;-65
2022/01/02 03:04:40;;;;;;;5.22;2.85;;;10.80;99.90;;;;;;7329194;32;20180;-64
2022/01/02 03:08:43;;;;;;;6.28;3.20;;;10.80;99.90;;;;;;7320391;32;20263;-64
2022/01/02 03:12:45;;;;;;;5.47;2.97;;;10.80;99.90;;;;;;7326441;32;20115;-64
2022/01/02 03:16:46;;;;;;;5.87;2.90;;;10.80;99.90;;;;;;7328711;32;20847;-64
2022/01/02 03:20:48;;;;;;;5.62;3.00;;;10.80;99.90;;;;;;7340025;32;20130;-64
2022/01/02 03:24:52;;;;;;;6.18;2.78;;;10.90;99.90;;;;;;7329311;32;20104;-64
2022/01/02 03:28:53;;;;;;;6.95;2.70;;;10.80;99.90;;;;;;7321782;32;20122;-64
2022/01/02 03:32:55;;;;;;;5.95;2.92;;;10.90;99.90;;;;;;7339247;32;20190;-64
2022/01/02 03:36:57;;;;;;;6.37;2.85;;;10.90;99.90;;;;;;7328882;32;20555;-64
2022/01/02 03:40:59;;;;;;;5.65;2.58;;;10.90;99.90;;;;;;7329424;32;20536;-64
2022/01/02 03:45:01;;;;;;;6.65;3.10;;;11.00;99.90;;;;;;7328378;32;20426;-64
2022/01/02 03:49:03;;;;;;;5.55;3.28;;;11.00;99.90;;;;;;7324188;32;20116;-65
2022/01/02 03:53:05;;;;;;;6.30;2.92;;;10.90;99.90;;;;;;7329401;32;20115;-65
2022/01/02 03:57:07;;;;;;;7.37;3.25;;;10.80;99.90;;;;;;7336187;32;20344;-65
2022/01/02 04:01:09;;;;;;;6.03;2.97;;;10.80;99.90;;;;;;7327411;32;20547;-66
2022/01/02 04:05:13;;;;;;;5.37;3.10;;;10.70;99.90;;;;;;7338602;32;20541;-64
2022/01/02 04:09:15;;;;;;;5.80;3.45;;;10.70;99.90;;;;;;7331516;32;20112;-64
2022/01/02 04:13:16;;;;;;;6.82;3.55;;;10.60;99.90;;;;;;7326318;32;20471;-64
2022/01/02 04:17:18;;;;;;;4.62;3.28;;;10.50;99.90;;;;;;7327870;32;20537;-64
2022/01/02 04:21:20;;;;;;;8.48;3.80;;;10.60;99.90;;;;;;7336188;32;20459;-64
2022/01/02 04:25:21;;;;;;;6.07;3.62;;;10.60;99.90;;;;;;7330249;32;20359;-64
2022/01/02 04:29:23;;;;;;;6.35;3.58;;;10.50;99.90;;;;;;7330989;32;20134;-64
2022/01/02 04:33:24;;;;;;;5.00;3.03;;;10.60;99.90;;;;;;7329678;32;20569;-64
2022/01/02 04:37:26;;;;;;;7.72;3.45;;;10.50;99.90;;;;;;7322286;32;20130;-64
2022/01/02 04:41:28;;;;;;;5.93;3.10;;;10.50;99.90;;;;;;7322859;32;20126;-66
2022/01/02 04:45:29;;;;;;;7.55;3.28;;;10.40;99.90;;;;;;7324049;32;20753;-65
2022/01/02 04:49:31;;;;;;;6.70;3.40;;;10.50;99.90;;;;;;7322336;32;20303;-65
2022/01/02 04:53:37;;;;;;;5.72;3.40;;;10.50;99.90;;;;;;7322437;32;20158;-64
2022/01/02 04:57:39;;;;;;;6.93;3.70;;;10.50;99.90;;;;;;7333959;32;20698;-65
2022/01/02 05:01:41;;;;;;;6.18;3.62;;;10.50;99.90;;;;;;7336232;32;20534;-65
2022/01/02 05:05:43;;;;;;;9.95;3.90;;;10.40;99.90;;;;;;7330300;32;20218;-65
2022/01/02 05:09:44;;;;;;;8.30;4.47;;;10.40;99.90;;;;;;7329437;32;20119;-66
2022/01/02 05:13:46;;;;;;;7.60;4.22;;;10.40;99.90;;;;;;7324911;32;20237;-66
2022/01/02 05:17:48;;;;;;;6.25;3.60;;;10.30;99.90;;;;;;7329356;32;20210;-66
2022/01/02 05:21:49;;;;;;;8.27;4.43;;;10.30;99.90;;;;;;7324092;32;20104;-64
2022/01/02 05:25:51;;;;;;;8.40;4.37;;;10.30;99.90;;;;;;7335104;32;20115;-66
2022/01/02 05:29:53;;;;;;;8.68;4.53;;;10.20;99.90;;;;;;7323678;32;20211;-65
2022/01/02 05:33:55;;;;;;;8.90;4.37;;;10.20;99.90;;;;;;7333600;32;20723;-66
2022/01/02 05:37:57;;;;;;;5.30;3.55;;;10.20;99.90;;;;;;7322659;32;20115;-66
2022/01/02 05:41:59;;;;;;;6.70;4.18;;;10.20;99.90;;;;;;7330331;32;20154;-66
2022/01/02 05:46:05;;;;;;;6.82;4.35;;;10.20;99.90;;;;;;7328765;32;20119;-66
2022/01/02 05:50:07;;;;;;;7.55;4.37;;;10.20;99.90;;;;;;7326638;32;20129;-66
2022/01/02 05:54:10;;;;;;;7.85;4.10;;;10.20;99.90;;;;;;7333146;32;20126;-66
2022/01/02 05:58:12;;;;;;;5.65;3.47;;;10.20;99.90;;;;;;7335552;32;20115;-66
2022/01/02 06:02:14;;;;;;;7.62;3.90;;;10.20;99.90;;;;;;7326737;32;20136;-65
2022/01/02 06:06:15;;;;;;;7.18;4.00;;;10.30;99.90;;;;;;7329791;32;20658;-65
2022/01/02 06:10:17;;;;;;;9.18;4.25;;;10.30;99.90;;;;;;7328040;32;20118;-65
2022/01/02 06:14:19;;;;;;;7.47;4.37;;;10.30;99.90;;;;;;7315668;32;20614;-66
2022/01/02 06:18:20;;;;;;;8.55;4.37;;;10.20;99.90;;;;;;7329254;32;20206;-66
2022/01/02 06:22:22;;;;;;;13.25;4.60;;;10.20;99.90;;;;;;7336441;32;20769;-66
2022/01/02 06:26:24;;;;;;;9.98;4.68;;;10.20;99.90;;;;;;7330706;32;20107;-65
2022/01/02 06:30:25;;;;;;;9.45;3.87;;;10.20;99.90;;;;;;7317978;32;20210;-67
2022/01/02 06:34:27;;;;;;;7.20;4.53;;;10.20;99.90;;;;;;7318090;32;20108;-66
2022/01/02 06:38:29;;;;;;;9.25;4.53;;;10.20;99.90;;;;;;7332267;32;20520;-66
2022/01/02 06:42:30;;;;;;;7.75;4.22;;;10.20;99.90;;;;;;7337810;32;20107;-66
2022/01/02 06:46:32;;;;;;;10.40;4.12;;;10.30;99.90;;;;;;7330674;32;20516;-67
2022/01/02 06:50:34;;;;;;;8.88;4.15;;;10.30;99.90;;;;;;7329058;32;20123;-66
2022/01/02 06:54:37;;;;;;;9.88;4.45;;;10.20;99.90;;;;;;7326859;32;20130;-66
2022/01/02 06:58:40;;;;;;;8.13;4.15;;;10.20;99.90;;;;;;7328324;32;20138;-67
2022/01/02 07:02:42;;;;;;;10.18;4.72;;;10.20;99.90;;;;;;7347472;32;20775;-67
2022/01/02 07:06:44;;;;;;;7.90;4.37;;;10.30;99.90;;;;;;7318913;32;20612;-67
2022/01/02 07:10:45;;;;;;;7.37;4.00;;;10.30;99.90;;;;;;7327060;32;20456;-66
2022/01/02 07:14:47;;;;;;;8.02;4.07;;;10.20;99.90;;;;;;7332309;32;20206;-66
2022/01/02 07:18:49;;;;;;;8.73;4.82;;;10.30;99.90;;;;;;7343395;32;20255;-68
2022/01/02 07:22:50;;;;;;;9.45;5.05;;;10.30;99.90;;;;;;7319148;32;20116;-67
2022/01/02 07:26:53;;;;;;;10.70;4.20;;;10.30;99.90;;;;;;7328563;32;20463;-67
2022/01/02 07:30:55;;;;;;;9.15;4.78;;;10.30;99.90;;;;;;7325671;32;20111;-66
2022/01/02 07:34:56;;;;;;;7.43;3.58;;;10.40;99.90;;;;;;7322424;32;20222;-67
2022/01/02 07:38:58;;;;;;;8.57;4.45;;;10.30;99.90;;;;;;7326074;32;20108;-64
2022/01/02 07:43:00;;;;;;;9.57;4.37;;;10.40;99.90;;;;;;7328305;32;20112;-65
2022/01/02 07:47:02;;;;;;;9.27;4.37;;;10.40;99.90;;;;;;7329978;32;20241;-65
2022/01/02 07:51:04;;;;;;;8.25;4.20;;;10.40;99.90;;;;;;7327733;32;20228;-64
2022/01/02 07:55:06;;;;;;;9.25;4.32;;;10.40;99.90;;;;;;7325050;32;20134;-64
2022/01/02 07:59:08;;;;;;;5.90;3.90;;;10.50;99.90;;;;;;7324439;32;20229;-64
2022/01/02 08:03:10;;;;;;;8.60;3.90;;;10.50;99.90;;;;;;7327650;32;20122;-63
2022/01/02 08:07:14;;;;;;;8.30;3.72;;;10.50;99.90;;;;;;7324460;32;20259;-63
2022/01/02 08:11:16;;;;;;;7.93;3.53;;;10.40;99.90;;;;;;7318535;32;20111;-64
2022/01/02 08:15:38;;;;;;;4.87;2.95;;;10.50;99.90;;;;;;7317794;32;20216;-63
2022/01/02 08:19:40;;;;;;;8.25;3.60;;;10.60;99.90;;;;;;7325684;32;20150;-64
2022/01/02 08:23:41;;;;;;;6.65;3.35;;;10.60;99.90;;;;;;7332969;32;20134;-62
2022/01/02 08:27:55;;;;;;;7.22;3.17;;;10.70;99.90;;;;;;7322789;32;20516;-63
2022/01/02 08:31:56;;;;;;;6.62;3.35;;;10.70;99.90;;;;;;7326796;32;20115;-62
2022/01/02 08:35:58;;;;;;;4.97;3.10;;;10.70;99.90;;;;;;7334780;32;20108;-62
2022/01/02 08:40:00;;;;;;;6.45;3.12;;;10.70;99.90;;;;;;7340985;32;20134;-63
2022/01/02 08:44:02;;;;;;;5.28;2.58;;;10.70;99.90;;;;;;7333645;32;20135;-63
2022/01/02 08:48:04;;;;;;;5.00;2.72;;;10.80;99.90;;;;;;7338991;32;20211;-63
2022/01/02 08:52:06;;;;;;;6.85;3.15;;;10.70;99.90;;;;;;7334681;32;20538;-63
2022/01/02 08:56:07;;;;;;;6.95;2.80;;;10.80;99.90;;;;;;7331614;32;20706;-63
2022/01/02 09:00:10;;;;;;;5.70;2.75;;;10.90;99.90;;;;;;7329080;32;20134;-64
2022/01/02 09:04:12;;;;;;;6.62;2.53;;;11.00;99.90;;;;;;7318705;32;20836;-64
2022/01/02 09:08:14;;;;;;;6.28;2.70;;;11.10;99.90;;;;;;7329370;32;20201;-64
2022/01/02 09:12:16;;;;;;;5.03;2.25;;;11.20;99.90;;;;;;7331785;32;20472;-64
2022/01/02 09:16:17;;;;;;;4.22;2.37;;;11.40;99.90;;;;;;7345761;32;20161;-64
2022/01/02 09:20:21;;;;;;;4.15;2.40;;;11.40;99.90;;;;;;7322555;32;20116;-64
2022/01/02 09:24:22;;;;;;;3.55;2.40;;;11.40;99.90;;;;;;7325315;32;20130;-63
2022/01/02 09:28:24;;;;;;;4.07;2.62;;;11.30;99.90;;;;;;7332070;32;20225;-63
2022/01/02 09:32:26;;;;;;;4.40;2.17;;;11.30;99.90;;;;;;7328078;32;20115;-63
2022/01/02 09:36:27;;;;;;;2.90;2.15;;;11.30;99.90;;;;;;7324107;32;20833;-64
2022/01/02 09:40:30;;;;;;;6.00;2.40;;;11.30;99.90;;;;;;7336137;32;20634;-64
2022/01/02 09:44:32;;;;;;;5.10;2.17;;;11.40;99.90;;;;;;7327288;32;20131;-63
2022/01/02 09:48:34;;;;;;;4.20;2.30;;;11.30;99.90;;;;;;7329511;32;20228;-63
2022/01/02 09:52:36;;;;;;;3.78;2.20;;;11.40;99.90;;;;;;7326343;32;20137;-63
2022/01/02 09:56:37;;;;;;;4.40;2.50;;;11.40;99.90;;;;;;7328770;32;20137;-63
2022/01/02 10:00:43;;;;;;;5.35;2.50;;;11.50;99.90;;;;;;7322698;32;20133;-62
2022/01/02 10:04:45;;;;;;;7.07;2.55;;;11.40;99.90;;;;;;7320511;32;20775;-62
2022/01/02 10:08:47;;;;;;;3.60;2.28;;;11.50;99.90;;;;;;7320909;32;20107;-63
2022/01/02 10:12:49;;;;;;;10.55;2.70;;;11.50;99.90;;;;;;7319332;32;20119;-64
2022/01/02 10:16:51;;;;;;;4.47;2.80;;;11.30;99.90;;;;;;7318934;32;22631;-62
2022/01/02 10:20:52;;;;;;;4.22;2.70;;;11.20;99.90;;;;;;7321720;32;20140;-63
2022/01/02 10:24:54;;;;;;;7.00;2.95;;;11.10;99.90;;;;;;7324980;32;20210;-64
2022/01/02 10:28:56;;;;;;;5.43;2.47;;;11.10;99.90;;;;;;7320907;32;20519;-64
2022/01/02 10:32:58;;;;;;;4.35;2.50;;;11.10;99.90;;;;;;7321120;32;20605;-63
2022/01/02 10:36:59;;;;;;;5.18;2.10;;;11.20;99.90;;;;;;7328415;32;20144;-62
2022/01/02 10:41:01;;;;;;;5.57;2.62;;;11.30;99.90;;;;;;7321035;32;20103;-63
2022/01/02 10:45:03;;;;;;;7.53;2.72;;;11.40;99.90;;;;;;7328906;32;20107;-62
2022/01/02 10:49:05;;;;;;;4.03;2.55;;;11.60;99.90;;;;;;7331053;32;20745;-63
2022/01/02 10:53:16;;;;;;;7.03;2.33;;;11.80;99.90;;;;;;7326394;32;20116;-63
2022/01/02 10:57:18;;;;;;;7.40;2.60;;;11.90;99.90;;;;;;7328022;32;20131;-62
2022/01/02 11:01:20;;;;;;;9.20;2.85;;;12.10;99.90;;;;;;7324830;32;20119;-62
2022/01/02 11:05:22;;;;;;;3.80;2.08;;;12.20;99.90;;;;;;7323508;32;20134;-62
2022/01/02 11:09:24;;;;;;;6.03;2.80;;;12.40;99.90;;;;;;7327781;32;20254;-63
2022/01/02 11:13:26;;;;;;;6.28;2.95;;;12.50;99.90;;;;;;7318819;32;20130;-63
2022/01/02 11:22:38;;;;;;;7.50;2.85;;;12.60;99.90;;;;;;7319352;32;20127;-63
2022/01/02 11:26:45;;;;;;;7.40;3.05;;;12.70;99.90;;;;;;7315935;32;20116;-64
2022/01/02 11:35:52;;;;;;;7.72;3.17;;;12.70;99.90;;;;;;7315975;32;20120;-63
2022/01/02 11:40:31;;;;;;;6.57;3.08;;;12.80;99.90;;;;;;7331632;26;20103;-78
2022/01/02 11:44:49;;;;;;;5.15;2.67;;;12.70;99.90;;;;;;7255532;32;20120;-78
2022/01/02 11:49:16;;;;;;;7.03;2.55;;;12.80;99.90;;;;;;7192559;32;20105;-77
2022/01/02 11:53:23;;;;;;;6.07;2.70;;;12.90;99.90;;;;;;7199989;32;20109;-78
2022/01/02 11:57:28;;;;;;;7.47;2.78;;;12.90;99.90;;;;;;7164046;32;20173;-78
2022/01/02 12:01:48;;;;;;;7.22;2.50;;;12.80;99.90;;;;;;7105528;33;20465;-78
2022/01/02 12:06:12;;;;;;;10.45;3.92;;;12.80;99.90;;;;;;6855993;34;20603;-79
2022/01/02 12:14:11;;;;;;;6.00;2.95;;;12.70;99.90;;;;;;7409709;31;20461;-59
2022/01/02 12:18:27;;;;;;;9.20;3.10;;;12.70;99.90;;;;;;7363025;32;20110;-59
2022/01/02 12:22:42;;;;;;;6.72;2.65;;;12.70;99.90;;;;;;7231644;32;20187;-59
2022/01/02 12:26:46;;;;;;;6.78;2.50;;;12.70;99.90;;;;;;7126757;33;20103;-61
2022/01/02 12:30:51;;;;;;;7.70;2.40;;;12.70;99.90;;;;;;7047157;33;20138;-62
2022/01/02 12:34:57;;;;;;;7.97;2.60;;;12.60;99.90;;;;;;6958430;33;43620;-59
2022/01/02 12:39:09;;;;;;;6.80;2.47;;;12.60;99.90;;;;;;7399079;31;20099;-59
2022/01/02 12:43:11;;;;;;;7.60;2.50;;;12.60;99.90;;;;;;7372325;32;20593;-60
2022/01/02 12:47:12;;;;;;;11.12;3.17;;;12.60;99.90;;;;;;7329329;32;20100;-59
2022/01/02 12:51:14;;;;;;;4.35;2.75;;;12.60;99.90;;;;;;7226752;32;20548;-60
2022/01/02 12:55:16;;;;;;;4.47;2.40;;;12.50;99.90;;;;;;7056673;32;20199;-58
2022/01/02 12:59:22;;;;;;;8.70;2.50;;;12.50;99.90;;;;;;7057057;33;20148;-59
2022/01/02 13:03:24;;;;;;;6.10;2.33;;;12.50;99.90;;;;;;7054370;33;20202;-58
2022/01/02 13:07:27;;;;;;;8.77;2.33;;;12.50;99.90;;;;;;7059645;33;20542;-59
2022/01/02 13:11:36;;;;;;;8.48;3.03;;;12.50;99.90;;;;;;7054303;33;20566;-58
2022/01/02 13:15:37;;;;;;;5.87;2.20;;;12.50;99.90;;;;;;7057354;33;20103;-60
2022/01/02 13:19:46;;;;;;;6.97;2.75;;;12.50;99.90;;;;;;7063009;33;20642;-59
2022/01/02 13:23:47;;;;;;;8.05;2.37;;;12.60;99.90;;;;;;7056393;33;20115;-61
2022/01/02 13:27:57;;;;;;;10.38;2.40;;;12.60;99.90;;;;;;7046086;33;20147;-58
2022/01/02 13:32:18;;;;;;;6.62;2.00;;;12.80;99.90;;;;;;7050989;33;20512;-59
2022/01/02 13:36:20;;;;;;;6.78;2.05;;;12.90;99.90;;;;;;7051552;33;20126;-59
2022/01/02 13:40:23;;;;;;;6.87;1.90;;;13.00;99.90;;;;;;7052637;33;20119;-59
2022/01/02 13:44:25;;;;;;;8.43;2.87;;;13.00;99.90;;;;;;7052778;33;20206;-59
2022/01/02 13:48:29;;;;;;;6.20;1.92;;;13.10;99.90;;;;;;7042141;33;20190;-59
2022/01/02 13:52:31;;;;;;;7.50;2.42;;;13.00;99.90;;;;;;7005704;33;20105;-59
2022/01/02 13:56:32;;;;;;;7.15;2.20;;;13.00;99.90;;;;;;6979961;33;20135;-59
2022/01/02 14:00:34;;;;;;;6.18;2.33;;;13.10;99.90;;;;;;6989661;33;20127;-60
2022/01/02 14:05:11;;;;;;;7.20;2.15;;;12.90;99.90;;;;;;6995755;33;20267;-59
2022/01/02 14:09:18;;;;;;;7.90;3.15;;;12.90;99.90;;;;;;7020457;33;20498;-60
2022/01/02 14:13:22;;;;;;;5.32;2.35;;;12.80;99.90;;;;;;6973587;34;20140;-60
2022/01/02 14:17:38;;;;;;;8.35;2.30;;;12.70;99.90;;;;;;6970844;33;20112;-60
2022/01/02 14:21:40;;;;;;;8.27;2.17;;;12.70;99.90;;;;;;6969515;34;20112;-58
2022/01/02 14:25:44;;;;;;;13.55;2.62;;;12.70;99.90;;;;;;6971177;34;20115;-59
2022/01/02 14:29:46;;;;;;;3.90;2.25;;;12.70;99.90;;;;;;6966979;34;20234;-61
2022/01/02 14:33:48;;;;;;;4.90;2.10;;;12.60;99.90;;;;;;6968476;34;20131;-60
2022/01/02 14:37:49;;;;;;;10.05;3.25;;;12.60;99.90;;;;;;6967911;34;20108;-60
2022/01/02 14:41:51;;;;;;;9.25;2.53;;;12.70;99.90;;;;;;6968429;34;20222;-60
2022/01/02 14:45:54;;;;;;;6.25;2.25;;;12.80;99.90;;;;;;6970553;34;20139;-60
2022/01/02 14:49:56;;;;;;;7.68;2.25;;;12.80;99.90;;;;;;6970008;34;20133;-63
2022/01/02 14:53:58;;;;;;;5.72;2.90;;;12.80;99.90;;;;;;7103740;32;20137;-59
2022/01/02 14:57:59;;;;;;;7.85;2.53;;;12.90;99.90;;;;;;7188373;32;20136;-59
2022/01/02 15:07:06;;;;;;;7.87;2.60;;;12.90;99.90;;;;;;7175058;32;22209;-60
2022/01/02 15:11:08;;;;;;;7.05;2.47;;;12.90;99.90;;;;;;7176560;32;20532;-59
2022/01/02 15:15:11;;;;;;;7.95;3.28;;;12.80;99.90;;;;;;7194192;32;20208;-59
2022/01/02 15:19:17;;;;;;;8.82;2.25;;;12.70;99.90;;;;;;7184396;32;20106;-60
2022/01/02 15:23:19;;;;;;;14.43;2.53;;;12.70;99.90;;;;;;7173379;32;20152;-61
2022/01/02 15:27:21;;;;;;;8.50;2.85;;;12.60;99.90;;;;;;7176790;32;20136;-60
2022/01/02 15:31:22;;;;;;;8.07;2.35;;;12.60;99.90;;;;;;7182924;32;20157;-58
2022/01/02 15:35:25;;;;;;;10.02;2.67;;;12.50;99.90;;;;;;7182260;32;20113;-59
2022/01/02 15:39:26;;;;;;;6.55;2.53;;;12.40;99.90;;;;;;7181246;32;20560;-59
2022/01/02 15:43:29;;;;;;;5.80;2.50;;;12.50;99.90;;;;;;7165178;32;20232;-59
2022/01/02 15:47:31;;;;;;;10.27;2.62;;;12.50;99.90;;;;;;7174308;32;20102;-59
2022/01/02 15:51:32;;;;;;;6.57;2.50;;;12.50;99.90;;;;;;7184460;32;20224;-60
2022/01/02 15:55:34;;;;;;;6.93;2.72;;;12.40;99.90;;;;;;7187269;32;20152;-58
2022/01/02 15:59:51;;;;;;;4.62;2.20;;;12.30;99.90;;;;;;7209611;32;20105;-60
2022/01/02 16:08:56;;;;;;;6.97;2.20;;;12.30;99.90;;;;;;7208813;32;20211;-76
2022/01/02 16:12:57;;;;;;;4.32;1.83;;;12.20;99.90;;;;;;7197887;32;20185;-76
2022/01/02 16:16:59;;;;;;;6.12;2.10;;;12.20;99.90;;;;;;7217971;32;20071;-76
2022/01/02 16:21:01;;;;;;;4.97;2.12;;;12.10;99.90;;;;;;7199514;32;20204;-75
2022/01/02 16:25:04;;;;;;;7.18;2.55;;;12.10;99.90;;;;;;7216323;32;20109;-75
2022/01/02 16:29:05;;;;;;;6.20;2.05;;;12.10;99.90;;;;;;7213723;32;20082;-75
2022/01/02 16:33:07;;;;;;;6.93;2.17;;;12.10;99.90;;;;;;7211342;32;20603;-76
2022/01/02 16:37:09;;;;;;;6.55;2.37;;;12.20;99.90;;;;;;7187164;33;20159;-75
2022/01/02 16:41:20;;;;;;;6.43;2.33;;;12.10;99.90;;;;;;7194814;33;20433;-73
2022/01/02 16:45:22;;;;;;;5.27;2.20;;;11.90;99.90;;;;;;7181895;33;20102;-75
2022/01/02 16:49:24;;;;;;;5.05;2.12;;;11.90;99.90;;;;;;7185361;33;20222;-75
2022/01/02 16:53:27;;;;;;;8.00;2.65;;;11.80;99.90;;;;;;7176399;33;20543;-78
2022/01/02 16:57:30;;;;;;;8.23;2.50;;;12.00;99.90;;;;;;7178309;33;20129;-75
2022/01/02 17:01:33;;;;;;;10.23;2.40;;;11.90;99.90;;;;;;7188881;33;20585;-76
2022/01/02 17:05:36;;;;;;;8.23;3.12;;;12.00;99.90;;;;;;7189058;33;20539;-78
2022/01/02 17:09:37;;;;;;;6.45;2.58;;;12.00;99.90;;;;;;7183556;33;20211;-74
2022/01/02 17:13:39;;;;;;;9.27;2.33;;;12.00;99.90;;;;;;7182928;33;20189;-74
2022/01/02 17:17:49;;;;;;;6.18;2.70;;;12.10;99.90;;;;;;7184548;33;20151;-75
2022/01/02 17:21:51;;;;;;;7.78;3.62;;;12.00;99.90;;;;;;7181486;33;20603;-74
2022/01/02 17:25:53;;;;;;;11.18;3.22;;;12.00;99.90;;;;;;7175768;33;20117;-78
2022/01/02 17:29:54;;;;;;;8.85;3.25;;;12.00;99.90;;;;;;7193744;32;20105;-79
2022/01/02 17:33:56;;;;;;;8.43;3.17;;;11.70;99.90;;;;;;7181595;33;20187;-77
2022/01/02 17:37:58;;;;;;;7.93;3.55;;;11.50;99.90;;;;;;7205250;32;20342;-80
2022/01/02 17:42:01;;;;;;;8.35;3.67;;;11.20;99.90;;;;;;7203164;32;20136;-80
2022/01/02 17:46:05;;;;;;;12.07;3.80;;;11.10;99.90;;;;;;7196056;32;20125;-80
2022/01/02 17:50:10;;;;;;;6.53;3.50;;;11.10;99.90;;;;;;7184858;33;20574;-81
2022/01/02 17:54:12;;;;;;;10.05;3.67;;;11.00;99.90;;;;;;7240983;32;20624;-80
2022/01/02 17:58:16;;;;;;;5.10;2.42;;;11.00;99.90;;;;;;7241271;32;20143;-80
2022/01/02 18:02:18;;;;;;;7.62;2.80;;;11.00;99.90;;;;;;7233944;32;20204;-81
2022/01/02 18:06:20;;;;;;;4.87;2.60;;;10.90;99.90;;;;;;7229326;32;20113;-78
2022/01/02 18:10:23;;;;;;;6.78;2.83;;;10.90;99.90;;;;;;7236213;32;20251;-79
2022/01/02 18:14:24;;;;;;;6.37;2.65;;;10.80;99.90;;;;;;7234865;32;20132;-80
2022/01/02 18:18:26;;;;;;;7.53;2.50;;;10.70;99.90;;;;;;7254828;32;20112;-80
2022/01/02 18:22:28;;;;;;;6.35;2.28;;;10.60;99.90;;;;;;7239692;32;20284;-81
2022/01/02 18:26:30;;;;;;;8.32;2.90;;;10.70;99.90;;;;;;7242477;32;20125;-79
2022/01/02 18:30:32;;;;;;;8.20;2.80;;;10.50;99.90;;;;;;7234577;32;20101;-79
2022/01/02 18:34:34;;;;;;;7.05;3.62;;;10.50;99.90;;;;;;7232459;32;20094;-79
2022/01/02 18:38:36;;;;;;;8.63;3.55;;;10.50;99.90;;;;;;7234055;32;20143;-80
2022/01/02 18:42:39;;;;;;;7.80;3.05;;;10.50;99.90;;;;;;7224537;32;20319;-79
2022/01/02 18:46:41;;;;;;;6.37;3.12;;;10.50;99.90;;;;;;7218956;32;20479;-79
2022/01/02 18:50:43;;;;;;;6.15;3.00;;;10.50;99.90;;;;;;7233823;32;20109;-79
2022/01/02 18:54:45;;;;;;;6.35;2.47;;;10.40;99.90;;;;;;7265060;32;20092;-76
2022/01/02 18:58:47;;;;;;;4.82;2.42;;;10.40;99.90;;;;;;7242205;32;20141;-79
2022/01/02 19:02:49;;;;;;;3.97;1.65;;;10.30;99.90;;;;;;7261391;32;20188;-80
2022/01/02 19:06:51;;;;;;;5.22;2.40;;;10.30;99.90;;;;;;7262258;32;20155;-79
2022/01/02 19:10:53;;;;;;;7.82;2.25;;;10.20;99.90;;;;;;7265948;32;20195;-82
2022/01/02 19:14:55;;;;;;;6.40;2.30;;;10.20;99.90;;;;;;7264466;32;20135;-80
2022/01/02 19:18:57;;;;;;;5.18;2.30;;;10.20;99.90;;;;;;7269007;32;20084;-80
2022/01/02 19:22:58;;;;;;;7.07;2.40;;;10.10;99.90;;;;;;7266674;32;20184;-80
2022/01/02 19:27:00;;;;;;;9.13;3.42;;;10.20;99.90;;;;;;7258587;32;20233;-81
2022/01/02 19:31:02;;;;;;;5.90;2.60;;;10.20;99.90;;;;;;7269924;32;20096;-81
2022/01/02 19:35:12;;;;;;;4.43;2.28;;;10.20;99.90;;;;;;7270146;32;20093;-81
2022/01/02 19:39:14;;;;;;;4.15;1.77;;;10.20;99.90;;;;;;7252711;32;20127;-83
2022/01/02 19:43:16;;;;;;;4.95;1.83;;;10.20;99.90;;;;;;7263137;32;20104;-80
2022/01/02 19:47:18;;;;;;;7.68;1.40;;;10.20;99.90;;;;;;7262718;32;20215;-81
2022/01/02 19:51:20;;;;;;;4.00;1.52;;;10.20;99.90;;;;;;7247921;32;20131;-82
2022/01/02 19:55:23;;;;;;;3.60;1.48;;;10.20;99.90;;;;;;7258557;32;20127;-81
2022/01/02 19:59:29;;;;;;;2.70;1.12;;;10.20;99.90;;;;;;7259267;32;20104;-81
2022/01/02 20:03:32;;;;;;;4.25;1.30;;;10.10;99.90;;;;;;7265606;32;20196;-82
2022/01/02 20:07:34;;;;;;;2.90;0.80;;;10.00;99.90;;;;;;7263210;32;20128;-81
2022/01/02 20:11:36;;;;;;;1.35;0.80;;;10.00;99.90;;;;;;7240277;32;20543;-82
2022/01/02 20:15:38;;;;;;;2.28;0.65;;;10.00;99.90;;;;;;7261713;32;20207;-81
2022/01/02 20:19:40;;;;;;;2.58;0.62;;;9.90;99.90;;;;;;7267157;32;20338;-80
2022/01/02 20:23:44;;;;;;;2.10;0.40;;;9.60;99.90;;;;;;7255945;32;20104;-79
2022/01/02 20:27:46;;;;;;;1.73;0.88;;;9.20;99.90;;;;;;7250710;32;20128;-80
2022/01/02 20:31:48;;;;;;;2.00;0.90;;;9.30;99.90;;;;;;7245622;32;20533;-81
2022/01/02 20:35:50;;;;;;;1.65;0.68;;;9.30;99.90;;;;;;7240254;32;20183;-81
2022/01/02 20:39:52;;;;;;;2.97;0.80;;;9.50;99.90;;;;;;7258172;32;20577;-78
2022/01/02 20:43:54;;;;;;;3.08;0.80;;;9.40;99.90;;;;;;7225301;32;20203;-81
2022/01/02 20:47:56;;;;;;;4.80;0.93;;;9.40;99.90;;;;;;7255453;32;20142;-81
2022/01/02 20:51:58;;;;;;;2.03;0.73;;;9.40;99.90;;;;;;7248437;32;20226;-81
2022/01/02 20:56:00;;;;;;;1.20;0.90;;;9.50;99.90;;;;;;7248204;32;20139;-84
2022/01/02 21:00:05;;;;;;;2.87;0.60;;;9.50;99.90;;;;;;7249769;32;20133;-82
2022/01/02 21:04:07;;;;;;;1.65;0.45;;;9.40;99.90;;;;;;7261714;32;20100;-82
2022/01/02 21:08:09;;;;;;;1.23;0.32;;;9.50;99.90;;;;;;7253690;32;20187;-82
2022/01/02 21:12:11;;;;;;;2.50;0.60;;;9.60;99.90;;;;;;7245665;32;20556;-81
2022/01/02 21:16:14;;;;;;;3.72;0.98;;;9.50;99.90;;;;;;7248290;32;20162;-83
2022/01/02 21:20:23;;;;;;;5.05;0.90;;;9.60;99.90;;;;;;7254488;32;20131;-82
2022/01/02 21:24:25;;;;;;;7.15;0.80;;;9.60;99.90;;;;;;7257380;32;20474;-84
2022/01/02 21:28:27;;;;;;;5.22;0.75;;;9.70;99.90;;;;;;7240883;32;20509;-83
2022/01/02 21:32:29;;;;;;;3.22;1.10;;;9.70;99.90;;;;;;7244479;32;20445;-83
2022/01/02 21:36:31;;;;;;;4.35;1.00;;;9.90;99.90;;;;;;7253569;32;20489;-83